Main page
METAR-TAF:

METAR-TAF

Airports :

Svalbard Airport. Longyear

Longyearbyen, Norway

latitude: 78-15N, longitude: 015-28E, elevation: 2 m

Current weather observation

The report was made 46 minutes ago, at 21:50 UTC
Wind 11 kt from the East
Temperature 0°C
Humidity 59%
Pressure 1005 hPa
Visibility 10 km or more
Broken clouds at a height of 3800 ft

METAR: ENSB 212150Z 08011KT 9999 BKN038 00/M07 Q1005 RMK WIND 1400FT 07015KT

Time: 00:36 (22:36 UTC)

Forecast

Forecast valid from 21 at 18 UTC to 22 at 18 UTC
Wind 12 kt from the East/Southeast
Visibility 10 km or more
Few clouds at a height of 2000 ft
Scattered clouds at a height of 4000 ft

TAF: ENSB 2118/2218 11012KT 9999 FEW020 SCT040

Weather observations and forecasts of more than 4000 airports (METAR and TAF reports).

The available stations are represented by yellow and red dots on the map.

Hover mouse over dot to see the name of the station.

Then click to see weather observations and forecasts.

To change the map : click on the green buttons with a black cross to zoom in, on the green button with a dash to zoom out, or on the green arrows for adjacent maps.


METAR-TAF: